General WM J Fox Airfield
KWJF : now visible

Airfield :











YOU CAN JOIN US ON...

 
LOGIN :

Register | Disclaimer

   EN    FR    IT 

 









Legend :    VFR   Marginal VFR   IFR   Intensive IFR   Very Intensive IFR
Visi :
Ceiling :
>= 8 km
>= 3000ft
5 to 8 km
1000 to 3000 ft
1500m to 5 km
500 to 1000 ft
800 to 1500m
200 to 500 ft
< 800m
< 200 ft
Symbols :   Thunderstorms  Fog  Heavy snow  Heavy precipitations  Wind > 20 kt






- Airport Elevation : 2351 ft


KWJF - General WM J Fox

CURRENT METAR :
  • 050656Z AUTO 24011KT 10SM CLR 23/07 A2978 RMK AO2 SLP060 T02330072

EXPIRED METARs :
  • 050556Z AUTO 24011KT 10SM CLR 23/09 A2980 RMK AO2 SLP066 T02330089 10333 20228 50005
  • 050456Z AUTO 21008KT 10SM CLR 25/08 A2981 RMK AO2 SLP068 T02500083

TAF KWJF
Valid from the 05 at 06:00 until the 06 at 06:00 UTC


050535Z 0506/0606 23010KT P6SM SKC
FM051800 22018G28KT P6SM SCT120
FM052200 23028G38KT 6SM BLDU SCT060 SCT150
FM060400 23018G28KT P6SM SKC
KZLA FIR / North America



MET'MAP, your aeronautical weather chart ! - Copyright ORBIFLY December 2007 - Disclaimer

ORBIFLY MET'MAP TEAM :

Programming & Development : Alexandra Zaïnal
Concept & original design : Baudouin d'Aumeries
Assistance for programming : Marc-Olivier Méhu
Technical & hardware support : Manuel Goepfert

Contact : metmap@orbifly.com




SOURCES & CREDITS :

   NOAA       Earth
Advisory